createdAt,value
2022-12-06T00:02:27.606Z,6.22
2022-12-06T00:05:33.754Z,6.29
2022-12-06T00:08:36.958Z,6.29
2022-12-06T00:11:39.727Z,6.23
2022-12-06T00:14:42.656Z,6.19
2022-12-06T00:17:46.750Z,6.21
2022-12-06T00:20:49.467Z,6.19
2022-12-06T00:23:53.556Z,6.14
2022-12-06T00:26:56.376Z,6.15
2022-12-06T00:29:59.314Z,6.15
2022-12-06T00:33:03.739Z,6.11
2022-12-06T00:36:08.394Z,6.04
2022-12-06T00:39:13.428Z,5.97
2022-12-06T00:42:16.514Z,5.75
2022-12-06T00:45:19.213Z,5.48
2022-12-06T00:48:24.182Z,5.24
2022-12-06T00:51:28.659Z,5.09
2022-12-06T00:54:31.640Z,5.10
2022-12-06T00:57:35.057Z,5.14
2022-12-06T01:00:37.773Z,5.18
2022-12-06T01:03:42.547Z,5.33
2022-12-06T01:06:45.260Z,5.38
2022-12-06T01:09:48.051Z,5.38
2022-12-06T01:12:50.652Z,5.36
2022-12-06T01:15:54.263Z,5.28
2022-12-06T01:19:01.165Z,5.20
2022-12-06T01:22:03.797Z,5.20
2022-12-06T01:25:07.263Z,5.20
2022-12-06T01:28:09.943Z,5.25
2022-12-06T01:31:13.471Z,5.27
2022-12-06T01:34:18.859Z,5.30
2022-12-06T01:37:22.013Z,5.33
2022-12-06T01:40:24.837Z,5.42
2022-12-06T01:43:35.396Z,5.47
2022-12-06T01:46:42.100Z,5.47
2022-12-06T01:49:48.568Z,5.50
2022-12-06T01:52:55.099Z,5.52
2022-12-06T01:55:58.111Z,5.54
2022-12-06T01:59:01.427Z,5.57
2022-12-06T02:02:04.472Z,5.59
2022-12-06T02:05:09.603Z,5.59
2022-12-06T02:08:13.031Z,5.58
2022-12-06T02:11:16.077Z,5.60
2022-12-06T02:14:21.319Z,5.58
2022-12-06T02:17:35.848Z,5.60
2022-12-06T02:20:43.133Z,5.62
2022-12-06T02:24:15.691Z,5.64
2022-12-06T02:27:33.528Z,5.64
2022-12-06T02:30:41.476Z,5.63
2022-12-06T02:33:48.548Z,5.64
2022-12-06T02:36:57.014Z,5.63
2022-12-06T02:40:03.920Z,5.69
2022-12-06T02:43:10.034Z,5.68
2022-12-06T02:46:15.414Z,5.67
2022-12-06T02:49:19.343Z,5.69
2022-12-06T02:52:25.335Z,5.68
2022-12-06T02:55:29.803Z,5.62
2022-12-06T02:58:35.935Z,5.64
2022-12-06T03:01:43.002Z,5.67
2022-12-06T03:04:57.288Z,5.69
2022-12-06T03:08:02.288Z,5.74
2022-12-06T03:11:05.694Z,5.79
2022-12-06T03:14:14.869Z,5.83
2022-12-06T03:17:24.419Z,5.81
2022-12-06T03:20:29.371Z,5.80
2022-12-06T03:23:35.572Z,5.82
2022-12-06T03:26:39.883Z,5.82
2022-12-06T03:29:47.770Z,5.87
2022-12-06T03:32:52.717Z,5.86
2022-12-06T03:35:56.780Z,5.84
2022-12-06T03:39:01.757Z,5.84
2022-12-06T03:42:04.714Z,5.79
2022-12-06T03:45:08.867Z,5.81
2022-12-06T03:48:14.601Z,5.83
2022-12-06T03:51:19.891Z,5.83
2022-12-06T03:54:22.617Z,5.77
2022-12-06T03:57:25.452Z,5.73
2022-12-06T04:00:28.359Z,5.73
2022-12-06T04:03:32.582Z,5.71
2022-12-06T04:06:36.152Z,5.70
2022-12-06T04:09:56.558Z,5.71
2022-12-06T04:13:01.997Z,5.71
2022-12-06T04:16:24.958Z,5.72
2022-12-06T04:19:28.343Z,5.69
2022-12-06T04:22:48.976Z,5.67
2022-12-06T04:25:51.971Z,5.57
2022-12-06T04:29:13.292Z,5.51
2022-12-06T04:32:33.429Z,5.51
2022-12-06T04:35:54.875Z,5.51
2022-12-06T04:38:57.628Z,5.55
2022-12-06T04:42:19.582Z,5.60
2022-12-06T04:45:22.287Z,5.42
2022-12-06T04:48:25.399Z,5.49
2022-12-06T04:51:30.093Z,5.62
2022-12-06T04:54:32.818Z,5.61
2022-12-06T04:57:35.570Z,5.69
2022-12-06T05:00:38.314Z,5.77
2022-12-06T05:03:44.140Z,5.87
2022-12-06T05:06:48.753Z,5.94
2022-12-06T05:09:51.301Z,5.95
2022-12-06T05:12:53.880Z,5.95
2022-12-06T05:15:57.883Z,5.97
2022-12-06T05:19:00.506Z,6.00
2022-12-06T05:22:05.118Z,6.03
2022-12-06T05:25:08.235Z,6.09
2022-12-06T05:28:11.231Z,6.13
2022-12-06T05:31:14.297Z,6.03
2022-12-06T05:34:17.032Z,5.99
2022-12-06T05:37:21.110Z,6.02
2022-12-06T05:40:24.159Z,6.04
2022-12-06T05:43:27.085Z,6.10
2022-12-06T05:46:29.853Z,6.09
2022-12-06T05:49:32.932Z,6.10
2022-12-06T05:52:37.021Z,6.12
2022-12-06T05:55:39.923Z,6.13
2022-12-06T05:58:42.632Z,6.16
2022-12-06T06:01:45.478Z,6.14
2022-12-06T06:04:48.599Z,6.12
2022-12-06T06:07:52.888Z,6.19
2022-12-06T06:10:55.938Z,6.25
2022-12-06T06:13:59.463Z,6.33
2022-12-06T06:17:02.152Z,6.14
2022-12-06T06:20:06.572Z,6.34
2022-12-06T06:23:10.715Z,6.33
2022-12-06T06:26:13.907Z,6.27
2022-12-06T06:29:16.564Z,6.28
2022-12-06T06:32:19.423Z,6.28
2022-12-06T06:35:22.237Z,6.24
2022-12-06T06:38:26.195Z,6.27
2022-12-06T06:41:28.943Z,6.30
2022-12-06T06:44:32.827Z,6.29
2022-12-06T06:47:36.557Z,6.32
2022-12-06T06:50:39.159Z,6.29
2022-12-06T06:53:43.218Z,6.29
2022-12-06T06:56:45.873Z,6.36
2022-12-06T06:59:48.734Z,6.26
2022-12-06T07:02:51.658Z,6.20
2022-12-06T07:05:56.797Z,6.21
2022-12-06T07:09:00.902Z,6.25
2022-12-06T07:12:03.812Z,6.27
2022-12-06T07:15:07.700Z,6.32
2022-12-06T07:18:10.628Z,6.37
2022-12-06T07:21:14.938Z,6.40
2022-12-06T07:24:18.997Z,6.41
2022-12-06T07:27:21.763Z,6.36
2022-12-06T07:30:27.504Z,6.40
2022-12-06T07:33:30.518Z,6.47
2022-12-06T07:36:33.811Z,6.41
2022-12-06T07:39:38.330Z,6.39
2022-12-06T07:42:58.752Z,6.42
2022-12-06T07:46:01.442Z,6.45
2022-12-06T07:49:04.289Z,6.51
2022-12-06T07:52:07.116Z,6.57
2022-12-06T07:55:12.693Z,6.60
2022-12-06T07:58:15.604Z,6.69
2022-12-06T08:01:18.541Z,6.78
2022-12-06T08:04:22.073Z,6.78
2022-12-06T08:07:25.330Z,6.78
2022-12-06T08:10:29.411Z,6.79
2022-12-06T08:13:32.419Z,6.84
2022-12-06T08:16:35.969Z,6.88
2022-12-06T08:19:39.353Z,6.99
2022-12-06T08:22:42.152Z,7.07
2022-12-06T08:25:46.427Z,7.14
2022-12-06T08:28:49.422Z,7.23
2022-12-06T08:31:52.697Z,7.16
2022-12-06T08:34:55.828Z,7.17
2022-12-06T08:37:58.494Z,6.98
2022-12-06T08:41:02.867Z,7.04
2022-12-06T08:44:06.594Z,6.98
2022-12-06T08:47:09.184Z,6.88
2022-12-06T08:50:12.701Z,6.69
2022-12-06T08:53:15.724Z,6.82
2022-12-06T08:56:19.909Z,7.17
2022-12-06T08:59:23.296Z,7.29
2022-12-06T09:02:26.038Z,7.01
2022-12-06T09:05:29.028Z,7.03
2022-12-06T09:08:31.684Z,6.98
2022-12-06T09:11:35.803Z,7.11
2022-12-06T09:14:38.680Z,6.87
2022-12-06T09:17:42.178Z,6.95
2022-12-06T09:20:44.788Z,7.02
2022-12-06T09:23:47.698Z,7.06
2022-12-06T09:26:51.867Z,6.98
2022-12-06T09:29:55.310Z,7.09
2022-12-06T09:32:58.319Z,7.20
2022-12-06T09:36:04.045Z,7.28
2022-12-06T09:39:09.617Z,7.18
2022-12-06T09:42:34.695Z,7.43
2022-12-06T09:45:49.626Z,7.51
2022-12-06T09:49:20.486Z,7.40
2022-12-06T09:52:40.694Z,7.24
2022-12-06T09:55:52.019Z,7.19
2022-12-06T09:59:07.458Z,7.20
2022-12-06T10:02:25.285Z,7.18
2022-12-06T10:05:44.428Z,7.16
2022-12-06T10:09:01.841Z,7.28
2022-12-06T10:12:13.413Z,7.38
2022-12-06T10:15:27.978Z,7.40
2022-12-06T10:18:46.432Z,7.47
2022-12-06T10:21:56.604Z,7.13
2022-12-06T10:25:05.632Z,7.46
2022-12-06T10:28:13.108Z,7.56
2022-12-06T10:31:29.373Z,7.66
2022-12-06T10:34:47.436Z,7.67
2022-12-06T10:38:07.911Z,7.57
2022-12-06T10:41:16.306Z,7.19
2022-12-06T10:44:24.131Z,7.35
2022-12-06T10:47:31.820Z,6.98
2022-12-06T10:50:37.414Z,6.99
2022-12-06T10:53:44.698Z,6.96
2022-12-06T10:56:50.743Z,6.86
2022-12-06T11:00:03.105Z,6.81
2022-12-06T11:03:12.239Z,6.31
2022-12-06T11:06:18.615Z,6.42
2022-12-06T11:09:27.087Z,6.62
2022-12-06T11:12:32.105Z,6.44
2022-12-06T11:15:37.758Z,6.67
2022-12-06T11:18:42.896Z,6.86
2022-12-06T11:21:51.352Z,6.92
2022-12-06T11:24:57.968Z,6.91
2022-12-06T11:28:06.227Z,6.68
2022-12-06T11:31:19.890Z,6.81
2022-12-06T11:34:29.000Z,6.76
2022-12-06T11:37:32.893Z,6.75
2022-12-06T11:40:38.874Z,6.42
2022-12-06T11:43:41.800Z,6.32
2022-12-06T11:46:44.790Z,6.52
2022-12-06T11:49:51.083Z,6.48
2022-12-06T11:52:58.256Z,6.48
2022-12-06T11:56:05.085Z,6.66
2022-12-06T11:59:24.670Z,6.58
2022-12-06T12:02:32.853Z,6.50
2022-12-06T12:05:39.907Z,6.17
2022-12-06T12:08:52.012Z,6.03
2022-12-06T12:11:56.357Z,6.00
2022-12-06T12:15:00.294Z,5.71
2022-12-06T12:18:04.649Z,6.37
2022-12-06T12:21:09.168Z,6.25
2022-12-06T12:28:26.134Z,6.38
2022-12-06T12:31:29.026Z,6.23
2022-12-06T12:34:32.482Z,6.37
2022-12-06T12:37:39.089Z,6.11
2022-12-06T12:40:43.721Z,6.02
2022-12-06T12:44:13.518Z,6.04
2022-12-06T12:47:20.004Z,6.19
2022-12-06T12:50:23.912Z,6.25
2022-12-06T12:53:31.778Z,6.12
2022-12-06T12:56:37.090Z,6.12
2022-12-06T12:59:41.516Z,6.03
2022-12-06T13:02:45.222Z,5.64
2022-12-06T13:05:48.525Z,5.63
2022-12-06T13:08:53.288Z,6.00
2022-12-06T13:11:59.488Z,5.99
2022-12-06T13:15:07.292Z,5.88
2022-12-06T13:18:14.322Z,6.16
2022-12-06T13:21:21.800Z,6.01
2022-12-06T13:24:30.186Z,6.05
2022-12-06T13:27:36.350Z,5.96
2022-12-06T13:30:41.148Z,5.93
2022-12-06T13:33:47.460Z,6.11
2022-12-06T13:36:52.214Z,5.94
2022-12-06T13:39:56.882Z,6.08
2022-12-06T13:43:00.346Z,6.23
2022-12-06T13:46:22.938Z,6.12
2022-12-06T13:49:27.070Z,6.05
2022-12-06T13:53:03.533Z,5.90
2022-12-06T13:56:29.041Z,5.74
2022-12-06T13:59:38.750Z,6.02
2022-12-06T14:02:46.520Z,5.93
2022-12-06T14:06:07.490Z,6.02
2022-12-06T14:09:15.258Z,6.18
2022-12-06T14:12:22.662Z,6.26
2022-12-06T14:15:25.394Z,6.44
2022-12-06T14:18:29.934Z,6.40
2022-12-06T14:21:37.514Z,6.21
2022-12-06T14:24:42.118Z,6.18
2022-12-06T14:27:48.440Z,6.18
2022-12-06T14:30:51.519Z,6.27
2022-12-06T14:33:55.466Z,6.29
2022-12-06T14:36:58.777Z,6.21
2022-12-06T14:40:22.757Z,6.21
2022-12-06T14:43:27.239Z,5.90
2022-12-06T14:46:30.137Z,5.86
2022-12-06T14:49:53.068Z,5.71
2022-12-06T14:52:58.416Z,5.88
2022-12-06T14:56:03.537Z,5.70
2022-12-06T14:59:12.818Z,5.89
2022-12-06T15:02:23.653Z,5.76
2022-12-06T15:05:34.512Z,5.88
2022-12-06T15:08:38.779Z,5.99
2022-12-06T15:12:00.337Z,5.99
2022-12-06T15:15:04.761Z,5.96
2022-12-06T15:18:14.207Z,6.00
2022-12-06T15:21:18.874Z,5.59
2022-12-06T15:24:23.774Z,5.82
2022-12-06T15:27:27.919Z,5.98
2022-12-06T15:30:31.928Z,6.01
2022-12-06T15:33:34.983Z,5.83
2022-12-06T15:36:37.780Z,5.68
2022-12-06T15:39:41.283Z,5.73
2022-12-06T15:42:44.047Z,5.76
2022-12-06T15:45:48.378Z,5.85
2022-12-06T15:48:52.155Z,5.82
2022-12-06T15:51:54.901Z,5.83
2022-12-06T15:54:57.721Z,5.88
2022-12-06T15:58:00.388Z,5.95
2022-12-06T16:01:04.361Z,5.82
2022-12-06T16:04:07.913Z,5.72
2022-12-06T16:07:10.746Z,5.90
2022-12-06T16:10:16.622Z,5.90
2022-12-06T16:13:23.737Z,5.79
2022-12-06T16:16:27.868Z,5.67
2022-12-06T16:19:50.681Z,5.82
2022-12-06T16:23:16.223Z,5.91
2022-12-06T16:26:19.208Z,5.87
2022-12-06T16:29:25.023Z,5.80
2022-12-06T16:32:29.304Z,5.82
2022-12-06T16:35:32.401Z,5.73
2022-12-06T16:38:35.286Z,5.64
2022-12-06T16:41:37.902Z,5.73
2022-12-06T16:44:51.287Z,5.60
2022-12-06T16:47:55.704Z,5.89
2022-12-06T16:50:58.662Z,5.93
2022-12-06T16:54:02.411Z,5.63
2022-12-06T16:57:05.404Z,5.84
2022-12-06T17:00:09.801Z,5.68
2022-12-06T17:03:14.167Z,5.85
2022-12-06T17:06:17.070Z,5.90
2022-12-06T17:09:20.949Z,5.77
2022-12-06T17:12:23.940Z,5.83
2022-12-06T17:15:26.619Z,5.93
2022-12-06T17:18:30.686Z,5.90
2022-12-06T17:21:34.170Z,5.95
2022-12-06T17:24:36.972Z,6.01
2022-12-06T17:27:40.174Z,6.03
2022-12-06T17:30:47.777Z,6.00
2022-12-06T17:33:55.220Z,6.03
2022-12-06T17:36:58.888Z,5.89
2022-12-06T17:40:01.565Z,5.79
2022-12-06T17:43:05.521Z,5.84
2022-12-06T17:46:08.896Z,5.51
2022-12-06T17:49:15.227Z,5.75
2022-12-06T17:52:18.546Z,5.84
2022-12-06T17:55:21.569Z,5.87
2022-12-06T17:58:24.733Z,6.01
2022-12-06T18:01:50.852Z,6.02
2022-12-06T18:04:53.983Z,6.04
2022-12-06T18:07:56.800Z,6.04
2022-12-06T18:10:59.816Z,6.00
2022-12-06T18:14:03.891Z,5.98
2022-12-06T18:17:07.699Z,5.98
2022-12-06T18:20:15.682Z,6.04
2022-12-06T18:23:18.877Z,6.14
2022-12-06T18:26:23.074Z,6.05
2022-12-06T18:29:26.790Z,5.86
2022-12-06T18:32:29.634Z,6.04
2022-12-06T18:35:36.189Z,6.10
2022-12-06T18:38:39.303Z,6.07
2022-12-06T18:41:42.750Z,5.81
2022-12-06T18:44:45.943Z,6.01
2022-12-06T18:47:49.628Z,6.04
2022-12-06T18:50:54.185Z,6.02
2022-12-06T18:53:58.654Z,6.05
2022-12-06T18:57:01.736Z,5.88
2022-12-06T19:00:05.523Z,5.87
2022-12-06T19:03:08.598Z,5.95
2022-12-06T19:06:14.779Z,5.89
2022-12-06T19:09:17.480Z,5.95
2022-12-06T19:12:20.362Z,5.99
2022-12-06T19:15:23.199Z,6.04
2022-12-06T19:18:25.736Z,5.99
2022-12-06T19:21:32.191Z,5.99
2022-12-06T19:24:34.864Z,6.00
2022-12-06T19:27:37.453Z,5.96
2022-12-06T19:30:40.291Z,6.05
2022-12-06T19:33:44.889Z,6.04
2022-12-06T19:36:50.000Z,5.67
2022-12-06T19:39:52.894Z,5.85
2022-12-06T19:43:12.918Z,5.96
2022-12-06T19:46:17.118Z,5.87
2022-12-06T19:49:22.482Z,5.83
2022-12-06T19:52:30.829Z,5.94
2022-12-06T19:55:33.829Z,5.94
2022-12-06T19:58:36.693Z,5.88
2022-12-06T20:01:40.220Z,5.85
2022-12-06T20:04:44.069Z,5.86
2022-12-06T20:07:47.973Z,5.86
2022-12-06T20:10:50.629Z,5.90
2022-12-06T20:13:53.262Z,5.62
2022-12-06T20:16:56.085Z,5.83
2022-12-06T20:20:01.579Z,5.84
2022-12-06T20:23:10.268Z,5.78
2022-12-06T20:26:17.046Z,5.81
2022-12-06T20:29:19.829Z,5.70
2022-12-06T20:32:22.363Z,5.74
2022-12-06T20:35:26.860Z,5.79
2022-12-06T20:38:31.125Z,5.83
2022-12-06T20:41:34.510Z,5.75
2022-12-06T20:44:37.463Z,5.73
2022-12-06T20:47:40.374Z,5.73
2022-12-06T20:50:43.370Z,5.74
2022-12-06T20:53:48.400Z,5.67
2022-12-06T20:56:53.284Z,5.82
2022-12-06T20:59:56.423Z,5.74
2022-12-06T21:02:59.335Z,5.33
2022-12-06T21:06:03.780Z,5.62
2022-12-06T21:09:08.381Z,5.62
2022-12-06T21:12:11.135Z,5.69
2022-12-06T21:15:14.097Z,5.67
2022-12-06T21:18:19.821Z,5.55
2022-12-06T21:21:23.938Z,5.57
2022-12-06T21:24:28.127Z,5.47
2022-12-06T21:27:30.914Z,5.73
2022-12-06T21:30:33.789Z,5.73
2022-12-06T21:33:36.619Z,5.81
2022-12-06T21:36:39.419Z,5.74
2022-12-06T21:39:46.334Z,5.81
2022-12-06T21:42:49.131Z,5.72
2022-12-06T21:45:51.825Z,5.75
2022-12-06T21:48:56.264Z,5.77
2022-12-06T21:52:04.571Z,5.76
2022-12-06T21:55:12.930Z,5.88
2022-12-06T21:58:15.634Z,5.67
2022-12-06T22:01:21.879Z,5.41
2022-12-06T22:04:24.873Z,5.50
2022-12-06T22:07:27.666Z,5.52
2022-12-06T22:10:31.716Z,5.62
2022-12-06T22:13:34.627Z,5.37
2022-12-06T22:16:37.320Z,5.63
2022-12-06T22:19:39.970Z,5.65
2022-12-06T22:22:42.853Z,5.68
2022-12-06T22:25:47.403Z,5.69
2022-12-06T22:28:50.518Z,5.62
2022-12-06T22:31:53.440Z,5.49
2022-12-06T22:34:56.227Z,5.50
2022-12-06T22:37:59.580Z,5.50
2022-12-06T22:41:04.191Z,5.55
2022-12-06T22:44:08.489Z,5.62
2022-12-06T22:47:11.226Z,5.56
2022-12-06T22:50:14.505Z,5.60
2022-12-06T22:53:17.989Z,5.58
2022-12-06T22:56:22.346Z,5.74
2022-12-06T22:59:25.187Z,5.62
2022-12-06T23:02:28.278Z,5.44
2022-12-06T23:05:30.854Z,5.55
2022-12-06T23:08:34.233Z,5.47
2022-12-06T23:11:38.603Z,5.66
2022-12-06T23:14:41.353Z,5.62
2022-12-06T23:17:44.044Z,5.51
2022-12-06T23:20:46.610Z,5.42
2022-12-06T23:23:52.065Z,5.29
2022-12-06T23:26:58.171Z,5.50
2022-12-06T23:30:01.521Z,5.50
2022-12-06T23:33:04.532Z,5.36
2022-12-06T23:36:09.425Z,5.51
2022-12-06T23:39:13.639Z,5.55
2022-12-06T23:42:17.757Z,5.64
2022-12-06T23:45:20.818Z,5.53
2022-12-06T23:48:23.751Z,5.44
2022-12-06T23:51:27.922Z,5.64
2022-12-06T23:54:30.666Z,5.49
2022-12-06T23:57:34.671Z,5.45
